createdAt,value
2022-10-26T00:01:05.007Z,2.97
2022-10-26T00:03:31.820Z,3.00
2022-10-26T00:06:19.483Z,3.37
2022-10-26T00:08:46.791Z,2.93
2022-10-26T00:11:14.469Z,2.97
2022-10-26T00:13:41.564Z,2.90
2022-10-26T00:16:13.908Z,2.87
2022-10-26T00:18:41.147Z,2.80
2022-10-26T00:21:09.840Z,3.17
2022-10-26T00:23:36.627Z,3.00
2022-10-26T00:26:04.200Z,3.30
2022-10-26T00:28:31.025Z,3.07
2022-10-26T00:31:06.242Z,3.10
2022-10-26T00:33:33.603Z,3.00
2022-10-26T00:36:00.727Z,2.80
2022-10-26T00:38:27.609Z,3.20
2022-10-26T00:40:54.295Z,2.50
2022-10-26T00:43:27.013Z,2.50
2022-10-26T00:45:56.627Z,3.33
2022-10-26T00:48:31.838Z,2.93
2022-10-26T00:51:03.137Z,2.63
2022-10-26T00:53:31.495Z,3.30
2022-10-26T00:55:58.531Z,3.00
2022-10-26T00:58:26.395Z,3.23
2022-10-26T01:00:53.527Z,2.80
2022-10-26T01:03:21.502Z,3.00
2022-10-26T01:05:49.714Z,2.83
2022-10-26T01:08:18.052Z,2.70
2022-10-26T01:10:45.529Z,2.67
2022-10-26T01:13:13.445Z,2.40
2022-10-26T01:16:05.015Z,2.73
2022-10-26T01:19:25.470Z,2.43
2022-10-26T01:22:06.736Z,2.33
2022-10-26T01:24:39.184Z,2.53
2022-10-26T01:27:23.850Z,3.00
2022-10-26T01:30:10.422Z,2.33
2022-10-26T01:32:57.560Z,2.30
2022-10-26T01:35:26.814Z,2.63
2022-10-26T01:38:22.574Z,2.73
2022-10-26T01:41:00.346Z,2.57
2022-10-26T01:43:33.864Z,2.47
2022-10-26T01:46:02.337Z,2.93
2022-10-26T01:48:30.063Z,2.80
2022-10-26T01:50:58.330Z,2.37
2022-10-26T01:53:27.635Z,2.43
2022-10-26T01:55:55.879Z,2.83
2022-10-26T01:58:49.876Z,2.87
2022-10-26T02:01:53.324Z,2.90
2022-10-26T02:04:46.230Z,2.57
2022-10-26T02:07:31.649Z,2.90
2022-10-26T02:10:32.018Z,2.23
2022-10-26T02:13:01.452Z,2.23
2022-10-26T02:15:36.649Z,2.30
2022-10-26T02:18:31.934Z,2.30
2022-10-26T02:21:07.269Z,2.50
2022-10-26T02:23:37.460Z,2.20
2022-10-26T02:26:08.448Z,2.30
2022-10-26T02:28:39.114Z,2.47
2022-10-26T02:31:07.779Z,2.57
2022-10-26T02:33:39.965Z,2.20
2022-10-26T02:36:11.559Z,2.50
2022-10-26T02:38:41.773Z,2.40
2022-10-26T02:41:09.021Z,2.10
2022-10-26T02:43:41.931Z,1.93
2022-10-26T02:46:17.045Z,2.23
2022-10-26T02:48:44.013Z,1.90
2022-10-26T02:51:20.554Z,2.40
2022-10-26T02:53:59.168Z,2.67
2022-10-26T02:56:35.518Z,2.63
2022-10-26T02:59:05.829Z,2.40
2022-10-26T03:01:34.401Z,2.20
2022-10-26T03:04:01.851Z,2.53
2022-10-26T03:06:28.530Z,1.93
2022-10-26T03:08:55.159Z,2.40
2022-10-26T03:11:21.791Z,1.97
2022-10-26T03:13:48.392Z,2.60
2022-10-26T03:16:15.027Z,2.97
2022-10-26T03:18:41.680Z,2.67
2022-10-26T03:21:08.322Z,2.60
2022-10-26T03:23:34.903Z,2.80
2022-10-26T03:26:02.239Z,2.77
2022-10-26T03:28:28.823Z,2.80
2022-10-26T03:30:55.453Z,3.00
2022-10-26T03:33:25.629Z,2.57
2022-10-26T03:35:56.938Z,2.83
2022-10-26T03:38:24.314Z,3.17
2022-10-26T03:41:16.847Z,3.53
2022-10-26T03:43:43.416Z,3.03
2022-10-26T03:46:09.998Z,3.00
2022-10-26T03:48:36.685Z,3.00
2022-10-26T03:51:03.329Z,3.10
2022-10-26T03:53:40.794Z,3.40
2022-10-26T03:56:07.681Z,3.73
2022-10-26T03:58:34.255Z,3.57
2022-10-26T04:01:00.923Z,3.30
2022-10-26T04:03:30.369Z,3.00
2022-10-26T04:05:59.918Z,3.70
2022-10-26T04:08:26.525Z,2.90
2022-10-26T04:10:53.125Z,3.03
2022-10-26T04:13:19.759Z,2.57
2022-10-26T04:15:46.408Z,2.93
2022-10-26T04:18:13.082Z,2.33
2022-10-26T04:20:42.238Z,2.77
2022-10-26T04:23:14.462Z,2.60
2022-10-26T04:25:42.866Z,3.33
2022-10-26T04:28:11.467Z,2.10
2022-10-26T04:30:39.044Z,2.83
2022-10-26T04:33:13.580Z,2.80
2022-10-26T04:35:40.429Z,2.70
2022-10-26T04:38:07.679Z,3.83
2022-10-26T04:40:37.670Z,2.73
2022-10-26T04:43:04.346Z,2.50
2022-10-26T04:45:31.262Z,2.50
2022-10-26T04:48:07.031Z,2.80
2022-10-26T04:50:34.658Z,2.70
2022-10-26T04:53:01.902Z,3.07
2022-10-26T04:55:28.490Z,3.43
2022-10-26T04:57:57.302Z,2.80
2022-10-26T05:00:27.647Z,2.77
2022-10-26T05:02:59.865Z,3.13
2022-10-26T05:05:26.484Z,3.10
2022-10-26T05:07:57.311Z,3.07
2022-10-26T05:10:24.735Z,2.37
2022-10-26T05:12:55.547Z,2.87
2022-10-26T05:15:22.843Z,3.47
2022-10-26T05:17:59.083Z,5.90
2022-10-26T05:20:30.821Z,2.40
2022-10-26T05:22:59.045Z,3.17
2022-10-26T05:25:26.360Z,3.03
2022-10-26T05:27:56.987Z,3.53
2022-10-26T05:30:23.617Z,3.07
2022-10-26T05:32:57.337Z,3.40
2022-10-26T05:35:24.356Z,2.70
2022-10-26T05:37:50.924Z,2.87
2022-10-26T05:40:17.722Z,3.43
2022-10-26T05:42:47.726Z,3.00
2022-10-26T05:45:20.332Z,2.60
2022-10-26T05:47:50.333Z,3.63
2022-10-26T05:50:24.536Z,3.33
2022-10-26T05:52:51.172Z,2.50
2022-10-26T05:55:18.625Z,3.03
2022-10-26T05:57:48.543Z,4.03
2022-10-26T06:00:19.866Z,2.77
2022-10-26T06:03:33.811Z,3.30
2022-10-26T06:06:02.697Z,2.87
2022-10-26T06:08:32.343Z,3.20
2022-10-26T06:11:05.427Z,2.80
2022-10-26T06:13:37.351Z,3.40
2022-10-26T06:16:18.949Z,3.80
2022-10-26T06:18:57.079Z,2.97
2022-10-26T06:21:39.601Z,3.23
2022-10-26T06:24:08.610Z,3.10
2022-10-26T06:27:06.901Z,3.30
2022-10-26T06:29:39.389Z,2.90
2022-10-26T06:32:09.216Z,3.50
2022-10-26T06:34:39.563Z,3.03
2022-10-26T06:37:07.872Z,2.97
2022-10-26T06:39:42.264Z,3.43
2022-10-26T06:42:11.819Z,3.00
2022-10-26T06:44:41.108Z,2.77
2022-10-26T06:47:21.255Z,3.10
2022-10-26T06:50:09.539Z,2.90
2022-10-26T06:52:46.619Z,3.83
2022-10-26T06:55:16.609Z,3.43
2022-10-26T06:57:44.463Z,3.53
2022-10-26T07:00:14.595Z,3.30
2022-10-26T07:02:41.291Z,3.23
2022-10-26T07:05:12.840Z,2.60
2022-10-26T07:07:45.006Z,2.83
2022-10-26T07:10:13.266Z,3.17
2022-10-26T07:12:39.885Z,2.43
2022-10-26T07:17:52.302Z,2.70
2022-10-26T07:20:21.021Z,3.00
2022-10-26T07:22:57.298Z,3.27
2022-10-26T07:25:25.360Z,3.03
2022-10-26T07:27:52.332Z,2.77
2022-10-26T07:30:19.045Z,3.10
2022-10-26T07:32:45.650Z,2.87
2022-10-26T07:35:12.525Z,2.73
2022-10-26T07:37:39.157Z,3.87
2022-10-26T07:40:07.114Z,3.53
2022-10-26T07:42:34.454Z,3.30
2022-10-26T07:45:05.334Z,3.00
2022-10-26T07:47:31.915Z,2.97
2022-10-26T07:49:58.911Z,3.17
2022-10-26T07:52:25.684Z,3.10
2022-10-26T07:54:52.297Z,2.93
2022-10-26T07:57:19.067Z,3.53
2022-10-26T07:59:45.707Z,3.13
2022-10-26T08:02:12.377Z,3.40
2022-10-26T08:04:39.063Z,3.50
2022-10-26T08:07:05.665Z,2.53
2022-10-26T08:09:32.238Z,3.20
2022-10-26T08:11:58.848Z,2.90
2022-10-26T08:14:25.400Z,2.63
2022-10-26T08:16:52.693Z,3.00
2022-10-26T08:19:20.054Z,2.70
2022-10-26T08:21:46.732Z,2.73
2022-10-26T08:24:13.391Z,2.77
2022-10-26T08:26:40.088Z,3.10
2022-10-26T08:29:06.800Z,3.17
2022-10-26T08:31:33.802Z,2.90
2022-10-26T08:34:01.883Z,2.93
2022-10-26T08:36:29.056Z,2.70
2022-10-26T08:38:55.840Z,2.70
2022-10-26T08:41:44.293Z,2.77
2022-10-26T08:44:13.878Z,2.50
2022-10-26T08:46:46.425Z,3.23
2022-10-26T08:49:30.273Z,3.37
2022-10-26T08:52:01.515Z,2.67
2022-10-26T08:54:42.435Z,2.70
2022-10-26T08:57:33.965Z,3.17
2022-10-26T09:00:03.081Z,3.00
2022-10-26T09:02:29.853Z,2.70
2022-10-26T09:04:59.348Z,2.33
2022-10-26T09:07:59.134Z,2.13
2022-10-26T09:10:34.080Z,2.20
2022-10-26T09:13:30.074Z,2.17
2022-10-26T09:16:22.915Z,2.37
2022-10-26T09:18:53.540Z,2.30
2022-10-26T09:21:32.280Z,2.33
2022-10-26T09:24:19.065Z,2.20
2022-10-26T09:26:58.412Z,2.27
2022-10-26T09:29:32.026Z,2.07
2022-10-26T09:32:02.865Z,2.40
2022-10-26T09:34:37.979Z,2.00
2022-10-26T09:37:24.409Z,2.57
2022-10-26T09:39:59.955Z,2.00
2022-10-26T09:42:36.366Z,1.50
2022-10-26T09:45:31.400Z,1.77
2022-10-26T09:48:06.744Z,1.93
2022-10-26T09:50:40.294Z,2.10
2022-10-26T09:53:06.944Z,1.93
2022-10-26T09:55:39.361Z,1.80
2022-10-26T09:58:15.193Z,2.30
2022-10-26T10:00:43.612Z,1.97
2022-10-26T10:03:24.842Z,2.17
2022-10-26T10:05:52.708Z,2.17
2022-10-26T10:08:28.216Z,1.90
2022-10-26T10:11:08.624Z,2.40
2022-10-26T10:13:44.248Z,2.63
2022-10-26T10:16:23.284Z,2.07
2022-10-26T10:18:55.793Z,2.10
2022-10-26T10:21:39.174Z,2.40
2022-10-26T10:24:27.583Z,2.63
2022-10-26T10:27:14.021Z,2.37
2022-10-26T10:29:45.742Z,2.20
2022-10-26T10:32:18.304Z,2.07
2022-10-26T10:34:44.980Z,2.63
2022-10-26T10:37:36.038Z,2.30
2022-10-26T10:40:06.771Z,1.93
2022-10-26T10:42:38.493Z,2.00
2022-10-26T10:45:06.963Z,2.10
2022-10-26T10:47:36.779Z,2.03
2022-10-26T10:50:06.171Z,2.07
2022-10-26T10:52:35.240Z,1.80
2022-10-26T10:55:15.386Z,2.03
2022-10-26T10:58:11.968Z,1.70
2022-10-26T11:00:41.368Z,1.70
2022-10-26T11:03:41.793Z,1.63
2022-10-26T11:06:23.949Z,1.90
2022-10-26T11:09:02.998Z,1.70
2022-10-26T11:11:44.672Z,1.67
2022-10-26T11:14:28.330Z,1.63
2022-10-26T11:17:09.230Z,1.50
2022-10-26T11:19:46.149Z,1.70
2022-10-26T11:22:17.512Z,1.67
2022-10-26T11:24:59.225Z,1.40
2022-10-26T11:27:46.180Z,1.27
2022-10-26T11:30:22.990Z,1.10
2022-10-26T11:33:09.675Z,1.20
2022-10-26T11:35:45.704Z,1.30
2022-10-26T11:38:45.961Z,1.00
2022-10-26T11:41:19.984Z,1.10
2022-10-26T11:43:48.865Z,1.17
2022-10-26T11:46:24.375Z,1.27
2022-10-26T11:48:56.993Z,1.20
2022-10-26T11:51:56.800Z,1.00
2022-10-26T11:54:36.212Z,0.90
2022-10-26T11:57:05.286Z,1.00
2022-10-26T11:59:39.182Z,1.33
2022-10-26T12:02:14.776Z,0.90
2022-10-26T12:04:44.846Z,1.20
2022-10-26T12:07:20.936Z,1.20
2022-10-26T12:09:47.619Z,0.90
2022-10-26T12:12:17.701Z,0.73
2022-10-26T12:15:03.395Z,1.20
2022-10-26T12:17:51.590Z,1.03
2022-10-26T12:20:46.055Z,1.10
2022-10-26T12:23:19.120Z,1.23
2022-10-26T12:26:23.491Z,0.80
2022-10-26T12:29:02.103Z,1.07
2022-10-26T12:31:37.924Z,1.20
2022-10-26T12:34:11.900Z,1.20
2022-10-26T12:37:08.741Z,1.50
2022-10-26T12:39:36.599Z,1.47
2022-10-26T12:42:06.292Z,1.00
2022-10-26T12:44:41.416Z,1.10
2022-10-26T12:47:09.859Z,1.07
2022-10-26T12:50:07.370Z,1.23
2022-10-26T12:52:50.354Z,1.00
2022-10-26T12:55:39.142Z,1.33
2022-10-26T12:58:14.763Z,1.10
2022-10-26T13:00:48.575Z,1.20
2022-10-26T13:03:17.900Z,1.33
2022-10-26T13:06:02.849Z,1.03
2022-10-26T13:08:43.000Z,0.90
2022-10-26T13:11:44.415Z,0.63
2022-10-26T13:14:41.294Z,1.10
2022-10-26T13:17:27.722Z,1.03
2022-10-26T13:20:00.292Z,1.00
2022-10-26T13:22:28.501Z,1.07
2022-10-26T13:25:02.230Z,1.10
2022-10-26T13:27:34.899Z,1.37
2022-10-26T13:30:04.245Z,1.00
2022-10-26T13:32:43.738Z,0.80
2022-10-26T13:35:15.235Z,1.00
2022-10-26T13:37:47.054Z,1.10
2022-10-26T13:40:18.665Z,1.00
2022-10-26T13:42:51.517Z,1.03
2022-10-26T13:45:26.181Z,1.00
2022-10-26T13:48:07.793Z,1.30
2022-10-26T13:50:42.429Z,1.07
2022-10-26T13:53:22.415Z,1.30
2022-10-26T13:55:57.097Z,1.10
2022-10-26T13:58:34.479Z,1.03
2022-10-26T14:01:14.030Z,1.20
2022-10-26T14:03:45.401Z,1.40
2022-10-26T14:06:20.052Z,1.20
2022-10-26T14:08:49.577Z,1.47
2022-10-26T14:11:20.275Z,1.10
2022-10-26T14:13:49.888Z,1.37
2022-10-26T14:16:20.509Z,1.40
2022-10-26T14:18:49.289Z,2.27
2022-10-26T14:21:20.076Z,2.57
2022-10-26T14:23:58.632Z,2.70
2022-10-26T14:26:39.836Z,1.63
2022-10-26T14:29:17.742Z,1.90
2022-10-26T14:31:44.510Z,2.10
2022-10-26T14:34:12.551Z,1.47
2022-10-26T14:36:51.237Z,1.73
2022-10-26T14:39:43.226Z,1.77
2022-10-26T14:42:37.375Z,1.53
2022-10-26T14:45:09.400Z,1.60
2022-10-26T14:47:48.154Z,1.20
2022-10-26T14:50:31.110Z,1.37
2022-10-26T14:53:15.724Z,1.70
2022-10-26T14:55:52.599Z,2.23
2022-10-26T14:58:36.507Z,1.57
2022-10-26T15:01:25.453Z,1.50
2022-10-26T15:04:27.177Z,1.90
2022-10-26T15:07:00.913Z,2.17
2022-10-26T15:09:37.619Z,1.67
2022-10-26T15:12:04.890Z,2.00
2022-10-26T15:14:38.751Z,2.17
2022-10-26T15:17:09.187Z,2.10
2022-10-26T15:19:44.657Z,2.53
2022-10-26T15:22:22.623Z,1.73
2022-10-26T15:24:56.335Z,1.90
2022-10-26T15:27:25.062Z,4.70
2022-10-26T15:30:12.471Z,3.30
2022-10-26T15:32:39.095Z,2.37
2022-10-26T15:35:18.311Z,3.37
2022-10-26T15:37:49.003Z,2.93
2022-10-26T15:40:19.630Z,2.50
2022-10-26T15:42:52.124Z,1.60
2022-10-26T15:45:26.254Z,1.80
2022-10-26T15:47:56.800Z,1.50
2022-10-26T15:50:26.709Z,1.60
2022-10-26T15:53:02.110Z,2.27
2022-10-26T15:55:31.990Z,3.10
2022-10-26T15:57:58.670Z,2.53
2022-10-26T16:00:25.390Z,2.30
2022-10-26T16:02:57.478Z,2.40
2022-10-26T16:05:24.397Z,2.10
2022-10-26T16:07:51.464Z,3.07
2022-10-26T16:10:22.760Z,8.03
2022-10-26T16:12:53.320Z,1.90
2022-10-26T16:15:24.891Z,2.03
2022-10-26T16:17:52.559Z,1.80
2022-10-26T16:20:24.754Z,1.40
2022-10-26T16:22:52.884Z,1.70
2022-10-26T16:25:23.851Z,1.73
2022-10-26T16:27:51.764Z,1.63
2022-10-26T16:30:19.499Z,2.00
2022-10-26T16:32:46.643Z,2.33
2022-10-26T16:35:14.256Z,2.27
2022-10-26T16:37:41.030Z,1.90
2022-10-26T16:40:09.450Z,2.00
2022-10-26T16:42:36.207Z,2.77
2022-10-26T16:45:03.240Z,2.50
2022-10-26T16:47:35.663Z,1.90
2022-10-26T16:50:03.315Z,1.60
2022-10-26T16:52:29.972Z,1.67
2022-10-26T16:54:56.934Z,2.03
2022-10-26T16:57:23.509Z,2.20
2022-10-26T16:59:50.253Z,2.50
2022-10-26T17:02:17.081Z,2.97
2022-10-26T17:04:43.852Z,3.30
2022-10-26T17:07:11.266Z,3.20
2022-10-26T17:09:38.089Z,3.20
2022-10-26T17:12:05.249Z,2.33
2022-10-26T17:14:32.732Z,2.30
2022-10-26T17:16:59.385Z,2.47
2022-10-26T17:19:26.031Z,2.73
2022-10-26T17:21:55.058Z,3.23
2022-10-26T17:24:21.907Z,2.83
2022-10-26T17:26:51.329Z,2.40
2022-10-26T17:32:18.267Z,2.07
2022-10-26T17:34:55.059Z,2.23
2022-10-26T17:37:27.258Z,2.80
2022-10-26T17:39:55.289Z,3.27
2022-10-26T17:42:22.077Z,3.10
2022-10-26T17:45:00.294Z,2.77
2022-10-26T17:47:29.655Z,3.00
2022-10-26T17:49:56.331Z,2.30
2022-10-26T17:52:24.798Z,2.07
2022-10-26T17:55:01.784Z,2.37
2022-10-26T17:57:39.460Z,2.00
2022-10-26T18:00:07.755Z,2.03
2022-10-26T18:02:39.273Z,2.10
2022-10-26T18:05:12.242Z,2.00
2022-10-26T18:07:38.986Z,2.17
2022-10-26T18:10:32.744Z,2.30
2022-10-26T18:12:55.970Z,1.93
2022-10-26T18:15:23.951Z,2.17
2022-10-26T18:17:51.521Z,2.30
2022-10-26T18:20:20.094Z,2.30
2022-10-26T18:22:47.012Z,2.30
2022-10-26T18:25:13.884Z,2.57
2022-10-26T18:27:40.466Z,2.63
2022-10-26T18:30:07.859Z,3.07
2022-10-26T18:32:34.537Z,3.10
2022-10-26T18:35:01.139Z,3.37
2022-10-26T18:37:28.188Z,3.60
2022-10-26T18:39:55.125Z,3.00
2022-10-26T18:42:21.875Z,3.20
2022-10-26T18:44:48.434Z,3.20
2022-10-26T18:47:23.431Z,3.20
2022-10-26T18:49:50.176Z,3.53
2022-10-26T18:52:27.334Z,3.93
2022-10-26T18:54:59.108Z,3.93
2022-10-26T18:57:29.002Z,3.40
2022-10-26T18:59:55.779Z,5.63
2022-10-26T19:02:34.926Z,9.43
2022-10-26T19:05:02.198Z,3.07
2022-10-26T19:07:28.787Z,2.40
2022-10-26T19:09:55.339Z,2.40
2022-10-26T19:12:21.969Z,2.97
2022-10-26T19:14:48.562Z,4.37
2022-10-26T19:17:15.252Z,4.07
2022-10-26T19:19:41.876Z,3.83
2022-10-26T19:22:08.459Z,4.00
2022-10-26T19:24:35.073Z,3.83
2022-10-26T19:27:02.178Z,4.00
2022-10-26T19:29:28.835Z,3.40
2022-10-26T19:31:55.577Z,2.90
2022-10-26T19:34:22.391Z,3.23
2022-10-26T19:36:49.143Z,3.27
2022-10-26T19:39:18.802Z,3.37
2022-10-26T19:41:46.374Z,3.10
2022-10-26T19:44:14.449Z,2.33
2022-10-26T19:46:43.198Z,2.40
2022-10-26T19:49:09.875Z,2.53
2022-10-26T19:51:36.518Z,2.90
2022-10-26T19:54:05.403Z,2.67
2022-10-26T19:56:33.403Z,2.20
2022-10-26T19:59:01.037Z,2.10
2022-10-26T20:01:27.971Z,2.00
2022-10-26T20:03:57.558Z,2.17
2022-10-26T20:06:24.259Z,1.80
2022-10-26T20:08:51.038Z,2.40
2022-10-26T20:11:18.703Z,2.00
2022-10-26T20:13:47.089Z,1.87
2022-10-26T20:16:15.245Z,1.83
2022-10-26T20:18:45.768Z,1.80
2022-10-26T20:21:16.927Z,1.50
2022-10-26T20:23:44.448Z,1.60
2022-10-26T20:26:18.260Z,1.77
2022-10-26T20:28:51.344Z,1.80
2022-10-26T20:31:18.150Z,1.60
2022-10-26T20:33:44.768Z,1.57
2022-10-26T20:36:11.401Z,2.10
2022-10-26T20:38:39.838Z,2.23
2022-10-26T20:41:11.780Z,1.93
2022-10-26T20:43:41.947Z,1.93
2022-10-26T20:46:32.488Z,1.97
2022-10-26T20:48:59.332Z,1.93
2022-10-26T20:51:51.903Z,1.83
2022-10-26T20:54:33.525Z,1.60
2022-10-26T20:57:02.766Z,1.63
2022-10-26T20:59:38.030Z,1.43
2022-10-26T21:02:04.713Z,1.83
2022-10-26T21:04:31.447Z,1.83
2022-10-26T21:06:58.044Z,1.73
2022-10-26T21:09:26.090Z,1.70
2022-10-26T21:11:57.719Z,1.63
2022-10-26T21:14:24.885Z,1.53
2022-10-26T21:16:51.564Z,1.37
2022-10-26T21:19:19.355Z,1.63
2022-10-26T21:21:46.175Z,1.50
2022-10-26T21:24:12.986Z,1.40
2022-10-26T21:26:39.561Z,2.13
2022-10-26T21:29:06.175Z,1.70
2022-10-26T21:31:33.174Z,1.83
2022-10-26T21:34:00.937Z,1.63
2022-10-26T21:36:27.704Z,1.50
2022-10-26T21:38:57.347Z,1.67
2022-10-26T21:41:28.450Z,1.37
2022-10-26T21:44:03.504Z,1.50
2022-10-26T21:46:38.066Z,1.50
2022-10-26T21:49:05.798Z,2.00
2022-10-26T21:51:35.076Z,2.07
2022-10-26T21:54:02.153Z,2.00
2022-10-26T21:56:28.713Z,1.60
2022-10-26T21:58:55.357Z,2.40
2022-10-26T22:01:23.136Z,2.10
2022-10-26T22:03:49.961Z,2.20
2022-10-26T22:08:47.763Z,2.00
2022-10-26T22:11:22.703Z,1.93
2022-10-26T22:13:50.718Z,1.90
2022-10-26T22:16:24.168Z,1.60
2022-10-26T22:18:52.603Z,1.77
2022-10-26T22:21:20.945Z,1.90
2022-10-26T22:23:47.849Z,1.70
2022-10-26T22:26:24.660Z,1.90
2022-10-26T22:28:53.786Z,1.77
2022-10-26T22:31:23.281Z,1.63
2022-10-26T22:33:54.538Z,1.70
2022-10-26T22:36:22.001Z,1.50
2022-10-26T22:38:49.805Z,1.50
2022-10-26T22:41:17.438Z,1.40
2022-10-26T22:43:44.222Z,1.73
2022-10-26T22:46:13.559Z,1.40
2022-10-26T22:48:47.062Z,1.43
2022-10-26T22:51:16.833Z,1.60
2022-10-26T22:53:43.668Z,1.40
2022-10-26T22:56:12.773Z,1.67
2022-10-26T22:58:40.562Z,1.47
2022-10-26T23:01:10.015Z,1.60
2022-10-26T23:03:37.401Z,1.50
2022-10-26T23:06:07.207Z,1.80
2022-10-26T23:08:33.843Z,1.63
2022-10-26T23:11:02.198Z,1.60
2022-10-26T23:13:29.263Z,1.80
2022-10-26T23:15:56.556Z,1.67
2022-10-26T23:18:23.315Z,1.90
2022-10-26T23:20:50.804Z,1.90
2022-10-26T23:23:18.531Z,9.93
2022-10-26T23:25:45.192Z,4.60
2022-10-26T23:28:12.005Z,5.23
2022-10-26T23:30:38.606Z,3.70
2022-10-26T23:33:05.394Z,4.03
2022-10-26T23:35:32.050Z,3.23
2022-10-26T23:37:59.371Z,3.17
2022-10-26T23:40:27.235Z,2.63
2022-10-26T23:42:54.290Z,2.20
2022-10-26T23:45:21.436Z,2.50
2022-10-26T23:47:48.264Z,1.97
2022-10-26T23:50:15.531Z,1.83
2022-10-26T23:52:42.110Z,2.23
2022-10-26T23:55:09.129Z,2.10
2022-10-26T23:57:35.736Z,1.80
